sensor_id;sensor_type;location;lat;lon;timestamp;pressure;altitude;pressure_sealevel;temperature;humidity
49397;BME280;35615;41.410;2.194;2023-01-28T09:24:17;101812.25;;;11.63;37.58
49397;BME280;35615;41.410;2.194;2023-01-28T09:30:02;101809.66;;;11.63;36.63
49397;BME280;35615;41.410;2.194;2023-01-28T09:32:59;101811.69;;;11.69;36.51
49397;BME280;35615;41.410;2.194;2023-01-28T09:35:33;101809.72;;;11.81;36.12
49397;BME280;35615;41.410;2.194;2023-01-28T09:38:01;101814.78;;;11.96;36.16
49397;BME280;35615;41.410;2.194;2023-01-28T09:40:43;101819.59;;;11.88;36.27
49397;BME280;35615;41.410;2.194;2023-01-28T09:46:36;101812.78;;;12.08;35.73
49397;BME280;35615;41.410;2.194;2023-01-28T09:49:36;101809.75;;;12.16;35.30
49397;BME280;35615;41.410;2.194;2023-01-28T09:52:16;101805.09;;;12.27;34.66
49397;BME280;35615;41.410;2.194;2023-01-28T09:55:06;101793.59;;;12.58;33.92
49397;BME280;35615;41.410;2.194;2023-01-28T09:57:52;101787.16;;;12.87;34.36
49397;BME280;35615;41.410;2.194;2023-01-28T10:04:09;101791.19;;;13.99;32.89
49397;BME280;35615;41.410;2.194;2023-01-28T10:18:12;101791.38;;;15.63;30.14
49397;BME280;35615;41.410;2.194;2023-01-28T10:21:36;101798.34;;;15.64;28.85
49397;BME280;35615;41.410;2.194;2023-01-28T10:24:31;101795.81;;;15.93;28.93
49397;BME280;35615;41.410;2.194;2023-01-28T10:27:20;101796.34;;;15.83;28.48
49397;BME280;35615;41.410;2.194;2023-01-28T10:30:14;101809.34;;;16.08;28.93
49397;BME280;35615;41.410;2.194;2023-01-28T10:32:52;101798.94;;;16.08;28.33
49397;BME280;35615;41.410;2.194;2023-01-28T10:35:44;101801.19;;;16.24;28.05
49397;BME280;35615;41.410;2.194;2023-01-28T10:38:23;101800.03;;;16.43;27.58
49397;BME280;35615;41.410;2.194;2023-01-28T10:41:00;101808.59;;;16.12;28.22
49397;BME280;35615;41.410;2.194;2023-01-28T10:43:37;101809.84;;;15.96;28.41
49397;BME280;35615;41.410;2.194;2023-01-28T10:46:38;101811.22;;;16.12;28.25
49397;BME280;35615;41.410;2.194;2023-01-28T10:49:40;101809.97;;;16.01;28.21
49397;BME280;35615;41.410;2.194;2023-01-28T10:52:11;101812.88;;;16.37;28.93
49397;BME280;35615;41.410;2.194;2023-01-28T10:54:45;101808.28;;;16.57;28.02
49397;BME280;35615;41.410;2.194;2023-01-28T10:57:24;101800.38;;;16.27;28.50
49397;BME280;35615;41.410;2.194;2023-01-28T10:59:55;101797.09;;;16.33;28.40
49397;BME280;35615;41.410;2.194;2023-01-28T11:02:32;101797.47;;;16.18;28.56
49397;BME280;35615;41.410;2.194;2023-01-28T11:05:29;101789.94;;;16.27;28.21
49397;BME280;35615;41.410;2.194;2023-01-28T11:08:16;101796.31;;;16.35;28.59
49397;BME280;35615;41.410;2.194;2023-01-28T11:10:50;101795.88;;;16.50;28.89
49397;BME280;35615;41.410;2.194;2023-01-28T11:13:26;101796.84;;;16.25;28.40
49397;BME280;35615;41.410;2.194;2023-01-28T11:16:04;101798.28;;;16.42;28.30
49397;BME280;35615;41.410;2.194;2023-01-28T11:18:53;101792.41;;;16.78;28.45
49397;BME280;35615;41.410;2.194;2023-01-28T11:21:40;101785.88;;;17.24;28.72
49397;BME280;35615;41.410;2.194;2023-01-28T11:27:35;101766.41;;;18.51;26.03
49397;BME280;35615;41.410;2.194;2023-01-28T11:30:15;101769.63;;;18.39;26.88
49397;BME280;35615;41.410;2.194;2023-01-28T11:33:13;101765.91;;;19.09;25.76
49397;BME280;35615;41.410;2.194;2023-01-28T11:36:20;101756.13;;;18.99;26.02
49397;BME280;35615;41.410;2.194;2023-01-28T11:39:00;101760.91;;;18.78;27.00
49397;BME280;35615;41.410;2.194;2023-01-28T11:41:45;101756.25;;;19.54;25.92
49397;BME280;35615;41.410;2.194;2023-01-28T11:44:24;101763.13;;;19.97;25.36
49397;BME280;35615;41.410;2.194;2023-01-28T11:51:02;101749.91;;;21.23;23.53
49397;BME280;35615;41.410;2.194;2023-01-28T11:54:01;101754.44;;;20.60;24.49
49397;BME280;35615;41.410;2.194;2023-01-28T11:57:20;101769.69;;;20.26;24.12
49397;BME280;35615;41.410;2.194;2023-01-28T12:03:35;101758.66;;;19.41;25.52
49397;BME280;35615;41.410;2.194;2023-01-28T12:06:33;101761.09;;;18.85;25.98
49397;BME280;35615;41.410;2.194;2023-01-28T12:09:48;101752.91;;;18.72;26.31
49397;BME280;35615;41.410;2.194;2023-01-28T12:15:50;101755.50;;;18.29;26.66
49397;BME280;35615;41.410;2.194;2023-01-28T12:21:35;101754.84;;;18.02;27.56
49397;BME280;35615;41.410;2.194;2023-01-28T12:37:03;101736.69;;;18.49;26.74
49397;BME280;35615;41.410;2.194;2023-01-28T12:43:11;101731.88;;;17.89;27.60
49397;BME280;35615;41.410;2.194;2023-01-28T12:46:02;101733.28;;;18.51;27.35
49397;BME280;35615;41.410;2.194;2023-01-28T12:48:39;101724.66;;;19.44;26.62
49397;BME280;35615;41.410;2.194;2023-01-28T12:57:18;101704.03;;;20.92;25.47
49397;BME280;35615;41.410;2.194;2023-01-28T13:00:31;101699.03;;;21.14;24.59
49397;BME280;35615;41.410;2.194;2023-01-28T13:03:30;101704.94;;;20.94;25.35
49397;BME280;35615;41.410;2.194;2023-01-28T13:06:41;101708.63;;;21.09;24.54
49397;BME280;35615;41.410;2.194;2023-01-28T13:09:21;101711.66;;;20.67;26.00
49397;BME280;35615;41.410;2.194;2023-01-28T13:11:55;101710.72;;;20.00;26.42
49397;BME280;35615;41.410;2.194;2023-01-28T13:14:35;101719.63;;;19.55;26.88
49397;BME280;35615;41.410;2.194;2023-01-28T13:17:24;101718.09;;;19.20;27.37
49397;BME280;35615;41.410;2.194;2023-01-28T13:19:58;101715.97;;;17.81;29.52
49397;BME280;35615;41.410;2.194;2023-01-28T13:22:39;101719.38;;;18.54;28.60
49397;BME280;35615;41.410;2.194;2023-01-28T13:25:18;101711.06;;;18.33;29.29
49397;BME280;35615;41.410;2.194;2023-01-28T13:28:21;101717.44;;;18.06;30.19
49397;BME280;35615;41.410;2.194;2023-01-28T13:31:00;101726.88;;;17.99;30.22
49397;BME280;35615;41.410;2.194;2023-01-28T13:33:37;101732.72;;;17.55;30.57
49397;BME280;35615;41.410;2.194;2023-01-28T13:36:43;101729.88;;;17.46;30.30
49397;BME280;35615;41.410;2.194;2023-01-28T13:39:21;101732.84;;;17.26;31.08
49397;BME280;35615;41.410;2.194;2023-01-28T13:41:52;101723.03;;;17.18;30.48
49397;BME280;35615;41.410;2.194;2023-01-28T13:44:32;101724.81;;;16.86;31.10
49397;BME280;35615;41.410;2.194;2023-01-28T13:50:17;101726.44;;;15.96;31.85
49397;BME280;35615;41.410;2.194;2023-01-28T13:53:35;101720.69;;;16.65;31.34
49397;BME280;35615;41.410;2.194;2023-01-28T13:56:19;101715.13;;;16.83;31.26
49397;BME280;35615;41.410;2.194;2023-01-28T13:59:27;101710.72;;;16.80;31.55
49397;BME280;35615;41.410;2.194;2023-01-28T14:08:19;101716.19;;;16.90;31.40
49397;BME280;35615;41.410;2.194;2023-01-28T14:11:10;101707.25;;;16.81;31.48
49397;BME280;35615;41.410;2.194;2023-01-28T14:20:01;101699.16;;;17.70;30.86
49397;BME280;35615;41.410;2.194;2023-01-28T14:22:45;101710.78;;;17.48;30.65
49397;BME280;35615;41.410;2.194;2023-01-28T14:28:15;101720.63;;;16.92;31.47
49397;BME280;35615;41.410;2.194;2023-01-28T14:31:31;101722.03;;;16.81;31.42
49397;BME280;35615;41.410;2.194;2023-01-28T14:34:26;101738.28;;;16.71;32.13
49397;BME280;35615;41.410;2.194;2023-01-28T14:37:15;101738.72;;;16.58;32.53
49397;BME280;35615;41.410;2.194;2023-01-28T14:39:51;101734.41;;;16.58;32.28
49397;BME280;35615;41.410;2.194;2023-01-28T14:42:42;101738.25;;;16.41;32.51
49397;BME280;35615;41.410;2.194;2023-01-28T14:48:28;101736.03;;;16.26;32.79
49397;BME280;35615;41.410;2.194;2023-01-28T14:54:57;101748.84;;;16.18;33.04
49397;BME280;35615;41.410;2.194;2023-01-28T14:57:46;101746.88;;;16.11;33.22
49397;BME280;35615;41.410;2.194;2023-01-28T15:00:35;101760.16;;;16.19;32.97
49397;BME280;35615;41.410;2.194;2023-01-28T15:03:21;101769.78;;;15.94;33.65
49397;BME280;35615;41.410;2.194;2023-01-28T15:06:16;101765.50;;;15.69;34.21
49397;BME280;35615;41.410;2.194;2023-01-28T15:08:47;101764.50;;;15.91;33.19
49397;BME280;35615;41.410;2.194;2023-01-28T15:11:25;101769.53;;;15.85;33.72
49397;BME280;35615;41.410;2.194;2023-01-28T15:13:56;101768.31;;;15.76;33.72
49397;BME280;35615;41.410;2.194;2023-01-28T15:16:49;101773.19;;;15.65;33.77
49397;BME280;35615;41.410;2.194;2023-01-28T15:19:35;101774.31;;;15.49;34.44
49397;BME280;35615;41.410;2.194;2023-01-28T15:22:05;101785.56;;;15.48;34.36
49397;BME280;35615;41.410;2.194;2023-01-28T15:24:41;101780.88;;;15.38;34.64
49397;BME280;35615;41.410;2.194;2023-01-28T15:27:27;101783.84;;;15.49;34.50
49397;BME280;35615;41.410;2.194;2023-01-28T15:30:01;101786.03;;;15.36;34.56
49397;BME280;35615;41.410;2.194;2023-01-28T15:32:34;101790.47;;;15.39;34.46
49397;BME280;35615;41.410;2.194;2023-01-28T15:35:09;101786.81;;;15.34;34.70
49397;BME280;35615;41.410;2.194;2023-01-28T15:37:43;101789.53;;;14.89;35.52
49397;BME280;35615;41.410;2.194;2023-01-28T15:40:23;101787.88;;;15.15;35.13
49397;BME280;35615;41.410;2.194;2023-01-28T15:43:01;101796.09;;;14.79;35.96
49397;BME280;35615;41.410;2.194;2023-01-28T15:45:33;101786.44;;;14.75;35.69
49397;BME280;35615;41.410;2.194;2023-01-28T15:48:04;101795.59;;;14.66;35.63
49397;BME280;35615;41.410;2.194;2023-01-28T15:50:32;101795.94;;;14.52;35.89
49397;BME280;35615;41.410;2.194;2023-01-28T15:53:13;101796.63;;;14.71;35.91
49397;BME280;35615;41.410;2.194;2023-01-28T15:55:43;101800.00;;;14.68;35.67
49397;BME280;35615;41.410;2.194;2023-01-28T15:58:20;101798.81;;;14.60;36.10
49397;BME280;35615;41.410;2.194;2023-01-28T16:01:12;101804.03;;;14.60;36.02
49397;BME280;35615;41.410;2.194;2023-01-28T16:04:03;101807.66;;;14.64;36.06
49397;BME280;35615;41.410;2.194;2023-01-28T16:06:39;101805.38;;;14.73;35.65
49397;BME280;35615;41.410;2.194;2023-01-28T16:09:30;101811.88;;;14.62;35.74
49397;BME280;35615;41.410;2.194;2023-01-28T16:12:12;101818.75;;;14.60;35.42
49397;BME280;35615;41.410;2.194;2023-01-28T16:15:00;101813.84;;;14.67;35.57
49397;BME280;35615;41.410;2.194;2023-01-28T16:17:30;101825.84;;;14.64;35.85
49397;BME280;35615;41.410;2.194;2023-01-28T16:23:21;101825.97;;;14.44;35.86
49397;BME280;35615;41.410;2.194;2023-01-28T16:26:05;101832.31;;;14.30;36.43
49397;BME280;35615;41.410;2.194;2023-01-28T16:28:45;101835.78;;;14.31;36.20
49397;BME280;35615;41.410;2.194;2023-01-28T16:31:21;101839.34;;;14.12;36.74
49397;BME280;35615;41.410;2.194;2023-01-28T16:33:55;101846.13;;;13.87;37.04
49397;BME280;35615;41.410;2.194;2023-01-28T16:36:26;101844.72;;;13.95;36.94
49397;BME280;35615;41.410;2.194;2023-01-28T16:39:14;101853.03;;;13.87;36.92
49397;BME280;35615;41.410;2.194;2023-01-28T16:41:48;101857.13;;;13.82;36.72
49397;BME280;35615;41.410;2.194;2023-01-28T16:44:29;101855.38;;;13.61;36.64
49397;BME280;35615;41.410;2.194;2023-01-28T16:47:04;101858.19;;;13.47;37.60
49397;BME280;35615;41.410;2.194;2023-01-28T16:49:32;101864.44;;;13.71;36.90
49397;BME280;35615;41.410;2.194;2023-01-28T16:52:04;101858.13;;;13.64;36.92
49397;BME280;35615;41.410;2.194;2023-01-28T16:54:33;101863.31;;;13.64;37.24
49397;BME280;35615;41.410;2.194;2023-01-28T16:57:17;101861.56;;;13.44;37.33
49397;BME280;35615;41.410;2.194;2023-01-28T17:02:36;101860.63;;;13.63;36.31
49397;BME280;35615;41.410;2.194;2023-01-28T17:05:19;101867.63;;;13.45;36.99
49397;BME280;35615;41.410;2.194;2023-01-28T17:07:48;101864.69;;;13.56;36.87
49397;BME280;35615;41.410;2.194;2023-01-28T17:10:18;101873.16;;;13.33;36.88
49397;BME280;35615;41.410;2.194;2023-01-28T17:12:47;101867.97;;;13.33;37.22
49397;BME280;35615;41.410;2.194;2023-01-28T17:15:34;101879.91;;;13.49;37.26
49397;BME280;35615;41.410;2.194;2023-01-28T17:18:02;101887.94;;;13.53;36.81
49397;BME280;35615;41.410;2.194;2023-01-28T17:20:37;101889.81;;;13.38;37.06
49397;BME280;35615;41.410;2.194;2023-01-28T17:23:29;101888.94;;;13.37;36.59
49397;BME280;35615;41.410;2.194;2023-01-28T17:26:10;101894.13;;;13.37;37.13
49397;BME280;35615;41.410;2.194;2023-01-28T17:28:50;101892.06;;;13.50;36.83
49397;BME280;35615;41.410;2.194;2023-01-28T17:31:32;101896.53;;;13.33;36.79
49397;BME280;35615;41.410;2.194;2023-01-28T17:34:06;101889.00;;;13.39;36.65
49397;BME280;35615;41.410;2.194;2023-01-28T17:36:39;101893.72;;;13.48;36.16
49397;BME280;35615;41.410;2.194;2023-01-28T17:39:36;101892.13;;;13.51;36.32
49397;BME280;35615;41.410;2.194;2023-01-28T17:42:40;101902.69;;;13.54;36.62
49397;BME280;35615;41.410;2.194;2023-01-28T17:45:28;101905.34;;;13.56;36.68
49397;BME280;35615;41.410;2.194;2023-01-28T17:47:58;101917.44;;;13.55;36.94
49397;BME280;35615;41.410;2.194;2023-01-28T17:50:28;101918.97;;;13.52;36.28
49397;BME280;35615;41.410;2.194;2023-01-28T17:53:20;101919.22;;;13.76;36.06
49397;BME280;35615;41.410;2.194;2023-01-28T17:55:48;101917.16;;;13.69;36.27
49397;BME280;35615;41.410;2.194;2023-01-28T17:58:24;101922.47;;;13.72;35.71
49397;BME280;35615;41.410;2.194;2023-01-28T18:01:08;101927.88;;;13.76;35.98
49397;BME280;35615;41.410;2.194;2023-01-28T18:03:39;101929.03;;;13.83;35.67
49397;BME280;35615;41.410;2.194;2023-01-28T18:06:13;101936.16;;;13.87;35.60
49397;BME280;35615;41.410;2.194;2023-01-28T18:08:51;101936.97;;;13.86;35.31
49397;BME280;35615;41.410;2.194;2023-01-28T18:11:30;101935.63;;;13.75;35.52
49397;BME280;35615;41.410;2.194;2023-01-28T18:14:02;101939.56;;;13.86;35.10
49397;BME280;35615;41.410;2.194;2023-01-28T18:16:32;101944.13;;;13.91;34.85
49397;BME280;35615;41.410;2.194;2023-01-28T18:19:02;101944.81;;;13.87;35.12
49397;BME280;35615;41.410;2.194;2023-01-28T18:21:41;101954.09;;;13.82;35.04
49397;BME280;35615;41.410;2.194;2023-01-28T18:24:23;101951.72;;;13.87;34.65
49397;BME280;35615;41.410;2.194;2023-01-28T18:27:04;101966.03;;;13.77;34.84
49397;BME280;35615;41.410;2.194;2023-01-28T18:30:06;101964.63;;;13.85;35.07
49397;BME280;35615;41.410;2.194;2023-01-28T18:32:40;101963.56;;;13.80;34.98
49397;BME280;35615;41.410;2.194;2023-01-28T18:35:13;101980.72;;;13.77;34.98
49397;BME280;35615;41.410;2.194;2023-01-28T18:37:44;101989.94;;;13.70;35.49
49397;BME280;35615;41.410;2.194;2023-01-28T18:40:14;101995.41;;;13.76;35.25
49397;BME280;35615;41.410;2.194;2023-01-28T18:42:53;101993.41;;;13.71;35.00
49397;BME280;35615;41.410;2.194;2023-01-28T18:45:21;101991.03;;;13.75;35.04
49397;BME280;35615;41.410;2.194;2023-01-28T18:48:01;101994.63;;;13.59;35.06
49397;BME280;35615;41.410;2.194;2023-01-28T18:50:32;101995.75;;;13.64;35.24
49397;BME280;35615;41.410;2.194;2023-01-28T18:53:00;101996.56;;;13.63;36.29
49397;BME280;35615;41.410;2.194;2023-01-28T18:55:55;102003.66;;;13.68;35.89
49397;BME280;35615;41.410;2.194;2023-01-28T18:58:44;102000.06;;;13.64;35.39
49397;BME280;35615;41.410;2.194;2023-01-28T19:01:18;101995.88;;;13.68;35.25
49397;BME280;35615;41.410;2.194;2023-01-28T19:03:59;101999.16;;;13.63;35.39
49397;BME280;35615;41.410;2.194;2023-01-28T19:06:32;101999.31;;;13.66;35.48
49397;BME280;35615;41.410;2.194;2023-01-28T19:09:11;102003.66;;;13.68;35.38
49397;BME280;35615;41.410;2.194;2023-01-28T19:11:42;102001.75;;;13.63;35.15
49397;BME280;35615;41.410;2.194;2023-01-28T19:14:17;102003.44;;;13.63;35.38
49397;BME280;35615;41.410;2.194;2023-01-28T19:16:51;102008.72;;;13.64;35.26
49397;BME280;35615;41.410;2.194;2023-01-28T19:19:25;102012.22;;;13.65;35.35
49397;BME280;35615;41.410;2.194;2023-01-28T19:21:58;102016.53;;;13.64;35.59
49397;BME280;35615;41.410;2.194;2023-01-28T19:24:28;102014.81;;;13.65;35.34
49397;BME280;35615;41.410;2.194;2023-01-28T19:27:21;102023.63;;;13.69;35.24
49397;BME280;35615;41.410;2.194;2023-01-28T19:29:51;102027.44;;;13.57;35.89
49397;BME280;35615;41.410;2.194;2023-01-28T19:32:23;102028.38;;;13.59;35.80
49397;BME280;35615;41.410;2.194;2023-01-28T19:34:54;102026.94;;;13.47;35.65
49397;BME280;35615;41.410;2.194;2023-01-28T19:37:24;102038.50;;;13.53;35.60
49397;BME280;35615;41.410;2.194;2023-01-28T19:40:00;102034.91;;;13.51;35.30
49397;BME280;35615;41.410;2.194;2023-01-28T19:42:46;102038.59;;;13.37;36.19
49397;BME280;35615;41.410;2.194;2023-01-28T19:45:19;102045.13;;;13.29;35.95
49397;BME280;35615;41.410;2.194;2023-01-28T19:47:52;102050.50;;;13.16;35.67
49397;BME280;35615;41.410;2.194;2023-01-28T19:50:31;102051.66;;;13.21;36.01
49397;BME280;35615;41.410;2.194;2023-01-28T19:53:01;102051.66;;;13.21;35.87
49397;BME280;35615;41.410;2.194;2023-01-28T19:55:29;102050.03;;;13.23;35.94
49397;BME280;35615;41.410;2.194;2023-01-28T19:58:06;102046.63;;;13.07;36.17
49397;BME280;35615;41.410;2.194;2023-01-28T20:01:01;102051.41;;;12.98;36.38
49397;BME280;35615;41.410;2.194;2023-01-28T20:03:29;102043.47;;;13.13;35.76
49397;BME280;35615;41.410;2.194;2023-01-28T20:06:10;102047.03;;;13.15;35.85
49397;BME280;35615;41.410;2.194;2023-01-28T20:08:53;102049.00;;;13.19;36.02
49397;BME280;35615;41.410;2.194;2023-01-28T20:11:30;102049.69;;;13.17;36.53
49397;BME280;35615;41.410;2.194;2023-01-28T20:14:00;102044.97;;;13.26;35.95
49397;BME280;35615;41.410;2.194;2023-01-28T20:16:34;102059.41;;;13.03;35.55
49397;BME280;35615;41.410;2.194;2023-01-28T20:19:07;102057.31;;;12.96;35.41
49397;BME280;35615;41.410;2.194;2023-01-28T20:22:02;102051.25;;;13.13;35.63
49397;BME280;35615;41.410;2.194;2023-01-28T20:24:36;102057.03;;;13.07;35.53
49397;BME280;35615;41.410;2.194;2023-01-28T20:27:07;102059.84;;;12.94;36.10
49397;BME280;35615;41.410;2.194;2023-01-28T20:29:51;102056.22;;;13.08;35.93
49397;BME280;35615;41.410;2.194;2023-01-28T20:32:30;102051.03;;;13.08;36.04
49397;BME280;35615;41.410;2.194;2023-01-28T20:35:01;102054.88;;;13.17;35.64
49397;BME280;35615;41.410;2.194;2023-01-28T20:37:32;102057.53;;;13.18;36.00
49397;BME280;35615;41.410;2.194;2023-01-28T20:40:00;102065.25;;;13.17;35.89
49397;BME280;35615;41.410;2.194;2023-01-28T20:42:33;102065.47;;;13.03;35.97
49397;BME280;35615;41.410;2.194;2023-01-28T20:45:07;102062.13;;;12.88;35.81
49397;BME280;35615;41.410;2.194;2023-01-28T20:47:41;102073.69;;;12.95;36.15
49397;BME280;35615;41.410;2.194;2023-01-28T20:50:11;102069.38;;;12.95;36.02
49397;BME280;35615;41.410;2.194;2023-01-28T20:52:55;102070.75;;;12.87;36.22
49397;BME280;35615;41.410;2.194;2023-01-28T20:55:27;102072.66;;;12.91;36.26
49397;BME280;35615;41.410;2.194;2023-01-28T20:57:58;102071.84;;;12.92;35.72
49397;BME280;35615;41.410;2.194;2023-01-28T21:00:47;102074.84;;;12.66;36.49
49397;BME280;35615;41.410;2.194;2023-01-28T21:03:17;102074.09;;;12.68;36.30
49397;BME280;35615;41.410;2.194;2023-01-28T21:05:48;102085.03;;;12.63;36.68
49397;BME280;35615;41.410;2.194;2023-01-28T21:08:17;102082.97;;;12.56;36.43
49397;BME280;35615;41.410;2.194;2023-01-28T21:11:03;102089.44;;;12.64;36.60
49397;BME280;35615;41.410;2.194;2023-01-28T21:13:35;102095.59;;;12.66;36.33
49397;BME280;35615;41.410;2.194;2023-01-28T21:16:03;102088.63;;;12.65;36.50
49397;BME280;35615;41.410;2.194;2023-01-28T21:18:33;102091.28;;;12.50;36.63
49397;BME280;35615;41.410;2.194;2023-01-28T21:21:10;102088.38;;;12.60;36.86
49397;BME280;35615;41.410;2.194;2023-01-28T21:23:41;102095.84;;;12.54;36.70
49397;BME280;35615;41.410;2.194;2023-01-28T21:26:15;102091.38;;;12.51;36.14
49397;BME280;35615;41.410;2.194;2023-01-28T21:28:43;102089.78;;;12.37;36.21
49397;BME280;35615;41.410;2.194;2023-01-28T21:31:21;102098.38;;;12.36;36.73
49397;BME280;35615;41.410;2.194;2023-01-28T21:34:01;102093.66;;;12.45;36.05
49397;BME280;35615;41.410;2.194;2023-01-28T21:36:45;102092.78;;;12.45;36.66
49397;BME280;35615;41.410;2.194;2023-01-28T21:39:29;102089.44;;;12.47;36.46
49397;BME280;35615;41.410;2.194;2023-01-28T21:42:07;102087.06;;;12.52;36.42
49397;BME280;35615;41.410;2.194;2023-01-28T21:44:34;102092.13;;;12.49;36.20
49397;BME280;35615;41.410;2.194;2023-01-28T21:47:01;102091.38;;;12.51;36.60
49397;BME280;35615;41.410;2.194;2023-01-28T21:49:31;102088.00;;;12.53;36.39
49397;BME280;35615;41.410;2.194;2023-01-28T21:52:00;102099.88;;;12.49;36.33
49397;BME280;35615;41.410;2.194;2023-01-28T21:54:36;102095.66;;;12.51;36.79
49397;BME280;35615;41.410;2.194;2023-01-28T21:57:06;102093.19;;;12.53;36.77
49397;BME280;35615;41.410;2.194;2023-01-28T21:59:35;102090.75;;;12.56;36.33
49397;BME280;35615;41.410;2.194;2023-01-28T22:02:19;102099.63;;;12.61;36.45
49397;BME280;35615;41.410;2.194;2023-01-28T22:05:02;102099.06;;;12.50;36.40
49397;BME280;35615;41.410;2.194;2023-01-28T22:07:41;102102.81;;;12.39;36.17
49397;BME280;35615;41.410;2.194;2023-01-28T22:10:23;102101.44;;;12.45;36.44
49397;BME280;35615;41.410;2.194;2023-01-28T22:12:53;102115.28;;;12.46;36.11
49397;BME280;35615;41.410;2.194;2023-01-28T22:15:26;102111.81;;;12.45;35.68
49397;BME280;35615;41.410;2.194;2023-01-28T22:17:57;102108.00;;;12.39;36.23
49397;BME280;35615;41.410;2.194;2023-01-28T22:20:31;102113.59;;;12.46;36.01
49397;BME280;35615;41.410;2.194;2023-01-28T22:22:59;102117.41;;;12.20;36.15
49397;BME280;35615;41.410;2.194;2023-01-28T22:25:33;102122.09;;;12.11;36.38
49397;BME280;35615;41.410;2.194;2023-01-28T22:28:09;102121.44;;;12.15;36.17
49397;BME280;35615;41.410;2.194;2023-01-28T22:30:42;102126.53;;;12.14;35.96
49397;BME280;35615;41.410;2.194;2023-01-28T22:33:10;102126.00;;;12.19;36.22
49397;BME280;35615;41.410;2.194;2023-01-28T22:35:45;102125.06;;;12.19;35.92
49397;BME280;35615;41.410;2.194;2023-01-28T22:38:22;102135.03;;;12.11;36.16
49397;BME280;35615;41.410;2.194;2023-01-28T22:40:52;102132.59;;;12.14;36.47
49397;BME280;35615;41.410;2.194;2023-01-28T22:43:31;102134.22;;;12.12;36.23
49397;BME280;35615;41.410;2.194;2023-01-28T22:46:03;102137.28;;;11.89;36.30
49397;BME280;35615;41.410;2.194;2023-01-28T22:48:43;102142.06;;;11.98;36.29
49397;BME280;35615;41.410;2.194;2023-01-28T22:51:31;102158.31;;;11.95;36.43
49397;BME280;35615;41.410;2.194;2023-01-28T22:54:03;102152.00;;;11.90;36.33
49397;BME280;35615;41.410;2.194;2023-01-28T22:56:35;102148.22;;;12.00;36.32
49397;BME280;35615;41.410;2.194;2023-01-28T22:59:06;102150.81;;;12.00;35.96
49397;BME280;35615;41.410;2.194;2023-01-28T23:01:36;102156.81;;;11.84;36.28
49397;BME280;35615;41.410;2.194;2023-01-28T23:04:09;102154.16;;;11.82;36.19
49397;BME280;35615;41.410;2.194;2023-01-28T23:06:37;102158.97;;;11.91;36.37
49397;BME280;35615;41.410;2.194;2023-01-28T23:09:19;102158.81;;;11.88;36.53
49397;BME280;35615;41.410;2.194;2023-01-28T23:12:14;102161.47;;;11.89;36.57
49397;BME280;35615;41.410;2.194;2023-01-28T23:14:41;102164.38;;;11.96;36.09
49397;BME280;35615;41.410;2.194;2023-01-28T23:17:37;102157.78;;;12.01;36.16
49397;BME280;35615;41.410;2.194;2023-01-28T23:20:42;102172.66;;;12.05;36.47
49397;BME280;35615;41.410;2.194;2023-01-28T23:23:30;102161.50;;;12.06;36.05
49397;BME280;35615;41.410;2.194;2023-01-28T23:26:57;102160.34;;;12.01;36.20
49397;BME280;35615;41.410;2.194;2023-01-28T23:29:31;102168.59;;;11.93;36.46
49397;BME280;35615;41.410;2.194;2023-01-28T23:32:09;102168.94;;;12.00;36.34
49397;BME280;35615;41.410;2.194;2023-01-28T23:34:43;102170.41;;;12.11;36.00
49397;BME280;35615;41.410;2.194;2023-01-28T23:37:18;102172.34;;;12.15;36.33
49397;BME280;35615;41.410;2.194;2023-01-28T23:39:50;102169.03;;;12.17;36.61
49397;BME280;35615;41.410;2.194;2023-01-28T23:42:28;102170.66;;;12.15;36.23
49397;BME280;35615;41.410;2.194;2023-01-28T23:44:55;102165.69;;;12.04;36.08
49397;BME280;35615;41.410;2.194;2023-01-28T23:47:28;102172.19;;;12.12;36.26
49397;BME280;35615;41.410;2.194;2023-01-28T23:50:13;102176.63;;;11.98;35.96
49397;BME280;35615;41.410;2.194;2023-01-28T23:52:49;102178.66;;;12.04;36.39
49397;BME280;35615;41.410;2.194;2023-01-28T23:55:26;102177.75;;;12.03;36.65
49397;BME280;35615;41.410;2.194;2023-01-28T23:57:57;102170.16;;;12.06;36.21
